GMMW

Details ICAO GMMW (NDR)
Name EL AROUI
Region Morocco
Timezone Africa/Casablanca (UTC+0.0)
Plans Departing 8
Arriving 32
Stats Elevation 574 ft / 175 m (AMSL)
Location 34.988779° -3.028204°
Runways 1
Magnetic Variation 0.477° W
Sunrise 2017-12-12 07:12:06 UTC / 2017-12-12 07:12:06 Local
Sunset 2017-12-12 17:02:27 UTC / 2017-12-12 17:02:27 Local
Advertisement - Login to hide

Runways

ID Width Length Bearing (true) Bearing (mag) Surface Threshold Offset Overrun Length
08 148 ft / 45 m 9,825 ft / 2,995 m 77.96° 78.44° Asphalt 0 ft / 0 m 0 ft / 0 m
26 148 ft / 45 m 9,825 ft / 2,995 m 257.97° 258.45° Asphalt 0 ft / 0 m 0 ft / 0 m

Map

Weather


0- 5 10 15 20 25 30 35+ Temperature / ° C

Clouds and Precipitation
Forecast for 2017-12-13 00:00 UTC. Updated 20 minutes ago

Ground ~20,000 ft ~40,000 ft Winds

METAR

GMMW 122300Z VRB01KT CAVOK 09/07 Q1023 NOSIG

TAF

TAF GMMW 121700Z 1218/1324 34006KT 9999 SCT026 BKN040

Frequencies

Tower 136.20 MHz TWR
Tower 118.65 MHz TWR
Warning: Do not use this data for real-world aviation or navigation. No guarantee of current accuracy is given.